Time;durP1;ratioP1;P1;durP2;ratioP2;P2;SDS_P1;SDS_P2;PMS_P1;PMS_P2;Temp;Humidity;BMP_temperature;BMP_pressure;BME280_temperature;BME280_humidity;BME280_pressure;Samples;Min_cycle;Max_cycle;Signal;HPM_P1;HPM_P2
2021/03/23 00:01:18;;;;;;;5.97;3.40;;;0.80;1894.40;;;;;;4841093;29;20037;-75
2021/03/23 00:03:46;;;;;;;9.55;4.28;;;0.80;1894.40;;;;;;4824562;29;20034;-74
2021/03/23 00:06:16;;;;;;;6.95;3.55;;;0.80;1894.40;;;;;;4841833;29;20052;-74
2021/03/23 00:08:44;;;;;;;6.78;4.10;;;0.80;1920.00;;;;;;4841914;29;20033;-74
2021/03/23 00:11:22;;;;;;;7.40;3.83;;;0.70;1920.00;;;;;;4842282;29;20030;-74
2021/03/23 00:13:49;;;;;;;8.75;4.93;;;0.70;1920.00;;;;;;4828509;29;20045;-75
2021/03/23 00:16:17;;;;;;;7.15;4.03;;;0.70;1920.00;;;;;;4834772;29;20061;-75
2021/03/23 00:18:43;;;;;;;6.28;4.10;;;0.70;1920.00;;;;;;4832732;29;20030;-75
2021/03/23 00:21:10;;;;;;;5.57;3.72;;;0.70;1945.60;;;;;;4851979;29;20034;-75
2021/03/23 00:23:37;;;;;;;9.35;4.20;;;0.70;1945.60;;;;;;4844951;29;20078;-75
2021/03/23 00:26:04;;;;;;;9.60;4.40;;;0.70;1945.60;;;;;;4841869;29;20491;-75
2021/03/23 00:28:30;;;;;;;6.85;3.35;;;0.70;1945.60;;;;;;4839222;29;20029;-75
2021/03/23 00:30:56;;;;;;;6.40;4.13;;;0.60;1945.60;;;;;;4837008;29;20034;-75
2021/03/23 00:33:23;;;;;;;9.23;4.38;;;0.60;1971.20;;;;;;4837818;29;20121;-76
2021/03/23 00:35:54;;;;;;;8.25;4.82;;;0.60;1971.20;;;;;;4855506;29;20029;-75
2021/03/23 00:38:20;;;;;;;9.40;4.50;;;0.60;1971.20;;;;;;4836384;29;20392;-75
2021/03/23 00:40:46;;;;;;;8.98;4.25;;;0.60;1971.20;;;;;;4859885;29;20104;-75
2021/03/23 00:43:12;;;;;;;8.05;4.72;;;0.60;1996.80;;;;;;4843054;29;20202;-75
2021/03/23 00:45:43;;;;;;;14.13;5.57;;;0.60;1996.80;;;;;;4860207;29;20041;-75
2021/03/23 00:48:12;;;;;;;9.50;4.15;;;0.60;1996.80;;;;;;4851965;29;20030;-75
2021/03/23 00:50:38;;;;;;;8.32;4.57;;;0.50;2022.40;;;;;;4825357;29;20038;-75
2021/03/23 00:53:04;;;;;;;10.82;4.97;;;0.50;2022.40;;;;;;4841397;29;20034;-75
2021/03/23 00:55:30;;;;;;;9.38;4.10;;;0.50;2022.40;;;;;;4825443;29;20026;-75
2021/03/23 00:57:56;;;;;;;14.25;6.28;;;0.50;2048.00;;;;;;4853566;29;20493;-75
2021/03/23 01:00:23;;;;;;;12.32;5.30;;;0.40;2048.00;;;;;;4842432;29;20105;-75
2021/03/23 01:02:49;;;;;;;13.20;4.78;;;0.50;2048.00;;;;;;4841226;29;20038;-74
2021/03/23 01:05:18;;;;;;;10.05;3.90;;;0.50;2048.00;;;;;;4854217;29;20041;-74
2021/03/23 01:07:43;;;;;;;8.20;4.35;;;0.50;2048.00;;;;;;4850356;29;20025;-74
2021/03/23 01:10:11;;;;;;;8.40;4.43;;;0.50;2048.00;;;;;;4830069;29;20040;-74
2021/03/23 01:12:37;;;;;;;7.40;4.13;;;0.50;2073.60;;;;;;4852130;29;20482;-74
2021/03/23 01:15:06;;;;;;;10.13;4.43;;;0.50;2073.60;;;;;;4840955;29;20121;-74
2021/03/23 01:17:32;;;;;;;8.10;4.10;;;0.50;2048.00;;;;;;4837365;29;20047;-74
2021/03/23 01:19:58;;;;;;;9.35;4.10;;;0.50;2048.00;;;;;;4852542;29;20088;-74
2021/03/23 01:22:23;;;;;;;9.07;4.32;;;0.50;2048.00;;;;;;4826040;29;20033;-74
2021/03/23 01:24:49;;;;;;;13.70;4.50;;;0.50;2073.60;;;;;;4850527;29;20085;-74
2021/03/23 01:27:15;;;;;;;11.38;4.80;;;0.50;2073.60;;;;;;4846513;29;20099;-74
2021/03/23 01:29:41;;;;;;;12.00;4.32;;;0.50;2073.60;;;;;;4851836;29;20034;-74
2021/03/23 01:32:07;;;;;;;13.93;4.68;;;0.50;2073.60;;;;;;4841371;29;20037;-74
2021/03/23 01:34:33;;;;;;;13.73;6.38;;;0.40;2073.60;;;;;;4843775;29;20049;-75
2021/03/23 01:36:59;;;;;;;8.23;4.93;;;0.40;2073.60;;;;;;4824106;29;20042;-74
2021/03/23 01:39:25;;;;;;;7.63;4.05;;;0.40;2099.20;;;;;;4841141;29;20034;-74
2021/03/23 01:41:50;;;;;;;13.15;4.50;;;0.30;2099.20;;;;;;4840563;29;20086;-74
2021/03/23 01:44:16;;;;;;;12.13;5.28;;;0.30;2099.20;;;;;;4824250;29;20049;-74
2021/03/23 01:46:45;;;;;;;10.27;4.47;;;0.30;2099.20;;;;;;4824540;29;20038;-75
2021/03/23 01:49:27;;;;;;;9.63;4.70;;;0.30;2124.80;;;;;;4841293;29;20033;-75
2021/03/23 01:52:01;;;;;;;7.75;4.38;;;0.30;2124.80;;;;;;4829575;29;20387;-74
2021/03/23 01:54:34;;;;;;;9.18;4.20;;;0.30;2124.80;;;;;;4824523;29;20034;-75
2021/03/23 01:57:06;;;;;;;9.05;4.07;;;0.30;2124.80;;;;;;4824753;29;20511;-75
2021/03/23 01:59:37;;;;;;;10.63;4.80;;;0.30;2150.40;;;;;;4840916;29;20026;-74
2021/03/23 02:02:03;;;;;;;9.07;4.95;;;0.30;2150.40;;;;;;4824137;29;20046;-75
2021/03/23 02:04:29;;;;;;;8.60;4.00;;;0.20;2150.40;;;;;;4852298;29;20475;-75
2021/03/23 02:06:55;;;;;;;7.63;4.38;;;0.20;2150.40;;;;;;4859149;29;20026;-75
2021/03/23 02:09:25;;;;;;;10.40;5.18;;;0.20;2150.40;;;;;;4833639;29;20166;-74
2021/03/23 02:11:57;;;;;;;11.30;5.70;;;0.10;2176.00;;;;;;4825998;29;20053;-74
2021/03/23 02:14:26;;;;;;;12.43;5.30;;;0.10;2176.00;;;;;;4842705;29;20049;-74
2021/03/23 02:16:52;;;;;;;10.90;5.28;;;0.00;2176.00;;;;;;4857249;29;20030;-74
2021/03/23 02:19:22;;;;;;;7.70;5.22;;;0.00;2201.60;;;;;;4824114;29;20042;-74
2021/03/23 02:21:48;;;;;;;8.73;4.40;;;0.00;2201.60;;;;;;4853683;29;20033;-74
2021/03/23 02:24:16;;;;;;;10.50;4.60;;;0.00;2201.60;;;;;;4829359;29;20094;-75
2021/03/23 02:26:43;;;;;;;9.27;5.53;;;0.00;2201.60;;;;;;4847667;29;20057;-74
2021/03/23 02:29:14;;;;;;;10.30;6.00;;;12.90;2201.60;;;;;;4840170;29;20121;-74
2021/03/23 02:31:47;;;;;;;11.48;5.90;;;0.00;2201.60;;;;;;4834434;29;20456;-75
2021/03/23 02:34:16;;;;;;;8.70;4.75;;;12.90;2201.60;;;;;;4845651;29;20372;-75
2021/03/23 02:36:43;;;;;;;8.63;4.75;;;12.90;2201.60;;;;;;4835024;29;20129;-74
2021/03/23 02:39:13;;;;;;;8.00;4.80;;;12.90;2201.60;;;;;;4859188;29;20037;-75
2021/03/23 02:41:40;;;;;;;8.15;4.43;;;12.90;2201.60;;;;;;4862085;29;20041;-75
2021/03/23 02:44:06;;;;;;;9.23;4.90;;;12.90;2201.60;;;;;;4847783;29;20038;-75
2021/03/23 02:46:33;;;;;;;14.52;5.60;;;12.90;2201.60;;;;;;4827124;29;20041;-75
2021/03/23 02:48:59;;;;;;;8.35;4.15;;;12.90;2201.60;;;;;;4843858;29;20062;-74
2021/03/23 02:51:26;;;;;;;7.78;4.75;;;12.90;2201.60;;;;;;4856211;29;20065;-74
2021/03/23 02:53:52;;;;;;;7.15;4.25;;;12.90;2201.60;;;;;;4827000;29;20069;-74
2021/03/23 02:56:18;;;;;;;12.57;4.90;;;12.90;2201.60;;;;;;4859835;29;20061;-74
2021/03/23 02:58:45;;;;;;;10.32;4.93;;;0.00;2201.60;;;;;;4852673;29;20041;-74
2021/03/23 03:01:12;;;;;;;6.28;3.80;;;12.90;2201.60;;;;;;4826724;29;20492;-74
2021/03/23 03:03:38;;;;;;;7.88;3.92;;;12.90;2201.60;;;;;;4826471;29;20092;-74
2021/03/23 03:06:05;;;;;;;8.45;4.85;;;12.90;2201.60;;;;;;4826994;29;20034;-74
2021/03/23 03:08:31;;;;;;;8.07;4.70;;;12.90;2201.60;;;;;;4859735;29;20033;-74
2021/03/23 03:10:56;;;;;;;8.95;4.82;;;12.90;2201.60;;;;;;4850573;29;20539;-74
2021/03/23 03:13:23;;;;;;;9.85;4.68;;;12.90;2201.60;;;;;;4854396;29;20424;-74
2021/03/23 03:15:51;;;;;;;8.05;4.85;;;12.90;2201.60;;;;;;4850808;29;20498;-74
2021/03/23 03:18:17;;;;;;;7.65;3.97;;;12.90;2201.60;;;;;;4829017;29;20038;-75
2021/03/23 03:20:43;;;;;;;7.43;4.28;;;12.90;2201.60;;;;;;4825643;29;20096;-75
2021/03/23 03:23:09;;;;;;;9.18;4.60;;;12.90;2201.60;;;;;;4841748;29;20242;-75
2021/03/23 03:25:34;;;;;;;8.20;4.80;;;12.90;2201.60;;;;;;4825848;29;20090;-74
2021/03/23 03:28:01;;;;;;;12.73;5.20;;;13.00;2201.60;;;;;;4843085;29;20824;-74
2021/03/23 03:30:29;;;;;;;13.32;5.82;;;13.00;2201.60;;;;;;4842712;29;20028;-74
2021/03/23 03:32:56;;;;;;;10.80;4.35;;;13.00;2201.60;;;;;;4826949;29;20041;-75
2021/03/23 03:35:31;;;;;;;7.88;4.53;;;13.00;2201.60;;;;;;4842807;29;20033;-74
2021/03/23 03:37:57;;;;;;;7.63;4.85;;;13.00;2201.60;;;;;;4851991;29;20109;-74
2021/03/23 03:40:40;;;;;;;11.48;5.47;;;13.00;2201.60;;;;;;4844561;29;20440;-73
2021/03/23 03:43:07;;;;;;;9.25;5.60;;;13.00;2201.60;;;;;;4844089;29;20045;-74
2021/03/23 03:45:34;;;;;;;9.63;4.80;;;13.00;2201.60;;;;;;4848057;29;20121;-74
2021/03/23 03:48:00;;;;;;;8.63;6.10;;;13.10;2201.60;;;;;;4851686;29;20026;-73
2021/03/23 03:50:27;;;;;;;10.63;5.50;;;13.00;2201.60;;;;;;4826409;29;20030;-74
2021/03/23 03:52:54;;;;;;;9.68;5.10;;;13.10;2201.60;;;;;;4842453;29;20112;-73
2021/03/23 03:55:26;;;;;;;12.23;6.35;;;13.10;2201.60;;;;;;4841983;29;20045;-73
2021/03/23 03:57:51;;;;;;;9.23;5.18;;;13.10;2201.60;;;;;;4825780;29;20033;-73
2021/03/23 04:00:21;;;;;;;11.18;5.47;;;13.10;2201.60;;;;;;4825158;29;20030;-73
2021/03/23 04:02:47;;;;;;;11.80;6.80;;;13.10;2201.60;;;;;;4838195;29;20082;-73
2021/03/23 04:05:28;;;;;;;12.30;5.50;;;13.10;2201.60;;;;;;4854639;29;20033;-74
2021/03/23 04:07:54;;;;;;;7.38;4.43;;;13.20;2201.60;;;;;;4825528;29;20042;-74
2021/03/23 04:10:21;;;;;;;10.40;6.45;;;13.20;2201.60;;;;;;4825773;29;20465;-74
2021/03/23 04:12:47;;;;;;;10.50;5.00;;;13.20;2201.60;;;;;;4816130;29;20058;-74
2021/03/23 04:15:24;;;;;;;10.20;6.20;;;13.20;2201.60;;;;;;4834859;29;20129;-74
2021/03/23 04:17:50;;;;;;;12.38;6.53;;;13.20;2201.60;;;;;;4842485;29;20390;-74
2021/03/23 04:20:17;;;;;;;10.30;6.03;;;13.20;2201.60;;;;;;4828475;29;20134;-75
2021/03/23 04:22:43;;;;;;;11.20;6.32;;;13.20;2201.60;;;;;;4836437;29;20038;-75
2021/03/23 04:25:11;;;;;;;14.45;8.35;;;13.20;2201.60;;;;;;4854134;29;20037;-74
2021/03/23 04:27:37;;;;;;;11.93;7.50;;;13.20;2201.60;;;;;;4845329;29;20097;-75
2021/03/23 04:30:05;;;;;;;12.60;6.93;;;13.30;2201.60;;;;;;4858801;29;20065;-74
2021/03/23 04:32:30;;;;;;;12.70;7.50;;;13.30;2201.60;;;;;;4840379;29;20033;-74
2021/03/23 04:34:56;;;;;;;10.25;6.72;;;13.30;2201.60;;;;;;4840585;29;20038;-74
2021/03/23 04:37:22;;;;;;;10.10;6.25;;;13.40;2201.60;;;;;;4840549;29;20026;-74
2021/03/23 04:39:47;;;;;;;8.75;6.47;;;13.30;2201.60;;;;;;4840360;29;20130;-74
2021/03/23 04:42:13;;;;;;;12.27;6.45;;;13.40;2201.60;;;;;;4840268;29;20044;-74
2021/03/23 04:44:39;;;;;;;10.75;6.45;;;13.40;2201.60;;;;;;4824032;29;20026;-74
2021/03/23 04:47:05;;;;;;;10.65;6.88;;;13.30;2201.60;;;;;;4841660;29;20042;-74
2021/03/23 04:49:31;;;;;;;11.88;6.43;;;13.40;2201.60;;;;;;4841458;29;20033;-74
2021/03/23 04:51:57;;;;;;;12.32;6.93;;;13.40;2201.60;;;;;;4833620;29;20038;-73
2021/03/23 04:54:24;;;;;;;13.55;7.47;;;13.40;2201.60;;;;;;4818893;29;20038;-74
2021/03/23 04:56:50;;;;;;;11.68;7.70;;;13.30;2201.60;;;;;;4832614;29;20042;-74
2021/03/23 04:59:16;;;;;;;14.55;7.45;;;13.30;2201.60;;;;;;4814440;29;20061;-74
2021/03/23 05:01:41;;;;;;;11.55;7.03;;;13.30;2201.60;;;;;;4822964;29;20034;-74
2021/03/23 05:04:14;;;;;;;16.25;8.13;;;13.20;2201.60;;;;;;4833775;29;20030;-73
2021/03/23 05:06:40;;;;;;;12.73;7.30;;;13.20;2201.60;;;;;;4821529;29;20428;-74
2021/03/23 05:09:06;;;;;;;14.75;7.55;;;13.20;2201.60;;;;;;4833880;29;20114;-74
2021/03/23 05:11:33;;;;;;;12.95;7.43;;;13.20;2201.60;;;;;;4832815;29;20389;-74
2021/03/23 05:14:00;;;;;;;14.77;9.43;;;13.10;2201.60;;;;;;4799323;29;20042;-74
2021/03/23 05:16:26;;;;;;;22.08;10.25;;;13.10;2201.60;;;;;;4818152;29;20404;-74
2021/03/23 05:18:52;;;;;;;13.93;9.40;;;13.00;2201.60;;;;;;4817311;29;20080;-74
2021/03/23 05:21:19;;;;;;;14.30;9.25;;;13.00;2201.60;;;;;;4813114;29;20035;-74
2021/03/23 05:23:45;;;;;;;14.85;8.95;;;12.90;2201.60;;;;;;4800752;29;20038;-74
2021/03/23 05:26:11;;;;;;;14.52;8.82;;;12.90;2201.60;;;;;;4799097;29;20046;-74
2021/03/23 05:28:37;;;;;;;12.50;7.03;;;0.00;2201.60;;;;;;4822840;29;20038;-74
2021/03/23 05:31:04;;;;;;;17.58;9.40;;;0.00;2201.60;;;;;;4806488;29;20049;-74
2021/03/23 05:33:30;;;;;;;15.05;8.48;;;0.10;2201.60;;;;;;4805963;29;20129;-74
2021/03/23 05:35:58;;;;;;;18.00;9.38;;;0.10;2201.60;;;;;;4806670;29;20046;-74
2021/03/23 05:38:29;;;;;;;13.50;7.93;;;0.20;2201.60;;;;;;4806224;29;20404;-74
2021/03/23 05:41:32;;;;;;;13.40;7.53;;;0.20;2201.60;;;;;;4805821;29;20038;-74
2021/03/23 05:44:53;;;;;;;14.70;6.88;;;0.30;2201.60;;;;;;4822660;29;20034;-74
2021/03/23 05:47:25;;;;;;;10.60;7.72;;;0.30;2201.60;;;;;;4780754;29;20092;-74
2021/03/23 05:50:12;;;;;;;17.92;9.55;;;0.40;2201.60;;;;;;4775421;30;20462;-74
2021/03/23 05:52:46;;;;;;;14.68;8.18;;;0.50;2201.60;;;;;;4784225;29;20039;-74
2021/03/23 05:55:40;;;;;;;14.73;7.25;;;0.60;2201.60;;;;;;4782962;30;20118;-74
2021/03/23 05:58:13;;;;;;;11.43;7.22;;;0.70;2201.60;;;;;;4773618;30;20043;-74
2021/03/23 06:00:39;;;;;;;9.80;6.78;;;0.90;2201.60;;;;;;4784215;29;20035;-74
2021/03/23 06:03:17;;;;;;;14.90;7.75;;;25.60;2201.60;;;;;;4777111;30;20062;-74
2021/03/23 06:06:18;;;;;;;15.15;8.23;;;25.70;2201.60;;;;;;4784631;29;20090;-74
2021/03/23 06:08:44;;;;;;;16.30;8.70;;;25.80;2201.60;;;;;;4766351;30;20040;-74
2021/03/23 06:11:09;;;;;;;18.98;8.57;;;25.90;2201.60;;;;;;4750371;30;20461;-75
2021/03/23 06:13:59;;;;;;;12.32;7.90;;;26.10;2201.60;;;;;;4772996;30;20564;-75
2021/03/23 06:16:42;;;;;;;14.85;8.13;;;26.20;2176.00;;;;;;4773150;29;20039;-74
2021/03/23 06:19:50;;;;;;;13.48;7.20;;;26.30;2176.00;;;;;;4788181;30;20039;-74
2021/03/23 06:22:34;;;;;;;12.85;8.77;;;26.40;2150.40;;;;;;4799293;29;20560;-75
2021/03/23 06:25:06;;;;;;;9.75;7.20;;;51.20;2150.40;;;;;;4789892;29;20035;-75
2021/03/23 06:27:38;;;;;;;10.48;6.72;;;51.30;2124.80;;;;;;4812814;29;20635;-75
2021/03/23 06:30:45;;;;;;;11.65;7.47;;;51.40;2099.20;;;;;;4795225;29;20926;-75
2021/03/23 06:33:18;;;;;;;10.23;7.82;;;51.50;2124.80;;;;;;4792208;29;20039;-75
2021/03/23 06:35:46;;;;;;;13.13;9.13;;;51.60;2099.20;;;;;;4806237;29;20087;-75
2021/03/23 06:38:29;;;;;;;12.85;8.82;;;51.70;2099.20;;;;;;4790141;29;20150;-75
2021/03/23 06:41:07;;;;;;;14.70;8.00;;;51.80;2073.60;;;;;;4795420;29;20050;-75
2021/03/23 06:43:34;;;;;;;11.02;6.78;;;51.90;2048.00;;;;;;4787894;29;20100;-75
2021/03/23 06:46:03;;;;;;;10.23;7.25;;;52.10;2022.40;;;;;;4808388;29;20050;-75
2021/03/23 06:48:31;;;;;;;9.00;6.53;;;76.80;2022.40;;;;;;4837731;29;20033;-75
2021/03/23 06:51:08;;;;;;;12.63;7.38;;;76.90;1996.80;;;;;;4833334;29;20015;-75
2021/03/23 06:53:34;;;;;;;12.30;6.95;;;77.00;1971.20;;;;;;4835348;29;20038;-75
2021/03/23 06:56:14;;;;;;;11.73;7.60;;;77.10;1996.80;;;;;;4840509;29;20030;-75
2021/03/23 06:58:40;;;;;;;12.75;7.10;;;77.30;1971.20;;;;;;4835083;29;20106;-76
2021/03/23 07:01:19;;;;;;;15.45;8.20;;;77.40;1945.60;;;;;;4838420;29;20501;-75
2021/03/23 07:04:13;;;;;;;14.35;7.13;;;77.60;1945.60;;;;;;4821665;29;20037;-75
2021/03/23 07:06:39;;;;;;;13.15;8.05;;;77.70;1920.00;;;;;;4833090;29;20537;-75
2021/03/23 07:09:21;;;;;;;12.00;6.57;;;102.50;1920.00;;;;;;4836152;29;20026;-75
2021/03/23 07:11:55;;;;;;;14.23;7.78;;;102.60;1894.40;;;;;;4820219;29;20033;-75
2021/03/23 07:14:29;;;;;;;11.48;7.88;;;102.80;1868.80;;;;;;4838182;29;20099;-75
2021/03/23 07:17:02;;;;;;;15.73;7.22;;;102.90;1868.80;;;;;;4838780;29;20037;-76
2021/03/23 07:19:28;;;;;;;15.48;7.68;;;103.00;1843.20;;;;;;4831111;29;20026;-75
2021/03/23 07:22:05;;;;;;;13.30;7.65;;;103.20;1843.20;;;;;;4841645;29;20034;-75
2021/03/23 07:24:33;;;;;;;12.00;6.80;;;103.30;1817.60;;;;;;4826466;29;20034;-76
2021/03/23 07:27:03;;;;;;;14.70;9.85;;;128.00;1843.20;;;;;;4842815;29;20057;-75
2021/03/23 07:29:38;;;;;;;12.35;7.55;;;128.20;1792.00;;;;;;4828627;29;20034;-75
2021/03/23 07:32:35;;;;;;;10.88;6.80;;;128.20;1843.20;;;;;;4814194;29;20030;-76
2021/03/23 07:35:27;;;;;;;10.27;6.97;;;128.40;1792.00;;;;;;4842869;29;20058;-76
2021/03/23 07:38:02;;;;;;;14.45;7.80;;;128.40;1766.40;;;;;;4745596;30;20035;-77
2021/03/23 07:40:28;;;;;;;13.35;7.05;;;128.70;1792.00;;;;;;4749050;30;20458;-78
2021/03/23 07:43:12;;;;;;;17.40;10.43;;;128.80;1740.80;;;;;;4750421;30;20051;-77
2021/03/23 07:45:50;;;;;;;11.52;7.53;;;128.70;1766.40;;;;;;4747786;30;20043;-77
2021/03/23 07:48:22;;;;;;;12.82;8.15;;;153.60;1766.40;;;;;;4745154;29;20033;-77
2021/03/23 07:50:56;;;;;;;14.70;7.57;;;153.80;1715.20;;;;;;4748549;30;20490;-76
2021/03/23 07:53:40;;;;;;;10.85;7.05;;;153.90;1689.60;;;;;;4734772;30;20044;-76
2021/03/23 07:56:24;;;;;;;14.15;7.28;;;154.00;1689.60;;;;;;4748353;30;20048;-76
2021/03/23 07:59:22;;;;;;;9.15;7.00;;;154.20;1689.60;;;;;;4749743;30;20028;-76
2021/03/23 08:02:16;;;;;;;12.40;6.88;;;154.40;1638.40;;;;;;4749256;30;20431;-76
2021/03/23 08:04:54;;;;;;;11.05;6.28;;;179.20;1587.20;;;;;;4732727;30;20044;-76
2021/03/23 08:07:45;;;;;;;13.27;7.10;;;179.30;1587.20;;;;;;4744161;30;20180;-76
2021/03/23 08:10:26;;;;;;;7.07;5.35;;;179.40;1561.60;;;;;;4717929;30;20132;-76
2021/03/23 08:13:01;;;;;;;10.25;6.65;;;179.60;1536.00;;;;;;4715027;30;20064;-77
2021/03/23 08:15:54;;;;;;;20.08;8.45;;;179.70;1536.00;;;;;;4744142;30;20104;-78
2021/03/23 08:18:46;;;;;;;9.90;6.38;;;180.10;1561.60;;;;;;4762020;30;20042;-77
2021/03/23 08:21:46;;;;;;;26.60;7.55;;;205.10;1510.40;;;;;;4760640;30;20044;-78
2021/03/23 08:24:17;;;;;;;12.43;7.20;;;205.10;1408.00;;;;;;4747267;30;20047;-78
2021/03/23 08:26:43;;;;;;;11.90;6.65;;;205.40;1408.00;;;;;;4752342;30;20059;-78
2021/03/23 08:29:22;;;;;;;13.45;6.22;;;205.50;1382.40;;;;;;4763945;30;20160;-78
2021/03/23 08:32:21;;;;;;;15.30;6.18;;;205.70;1331.20;;;;;;4753895;30;20040;-78
2021/03/23 08:35:11;;;;;;;9.70;5.85;;;230.40;1305.60;;;;;;4764106;30;20509;-78
2021/03/23 08:37:45;;;;;;;11.88;6.15;;;230.40;1280.00;;;;;;4764795;30;20042;-76
2021/03/23 08:40:37;;;;;;;13.43;6.15;;;230.40;1280.00;;;;;;4745059;30;20047;-75
2021/03/23 08:43:04;;;;;;;8.32;5.35;;;230.40;1280.00;;;;;;4756537;30;20060;-75
2021/03/23 08:45:42;;;;;;;12.20;6.60;;;205.50;1280.00;;;;;;4757644;30;20545;-74
2021/03/23 08:48:26;;;;;;;9.68;5.47;;;230.70;1254.40;;;;;;4821383;29;20404;-74
2021/03/23 08:50:59;;;;;;;11.88;7.65;;;230.90;1254.40;;;;;;4813120;29;20113;-76
2021/03/23 08:53:32;;;;;;;8.15;5.80;;;231.30;1228.80;;;;;;4835043;29;20159;-75
2021/03/23 08:55:59;;;;;;;17.10;6.78;;;256.20;1228.80;;;;;;4817204;29;20116;-75
2021/03/23 09:01:37;;;;;;;8.65;5.47;;;256.10;1152.00;;;;;;4828662;29;20053;-75
2021/03/23 09:04:02;;;;;;;19.90;6.55;;;256.80;1126.40;;;;;;4802922;29;20420;-76
2021/03/23 09:06:59;;;;;;;9.85;5.88;;;256.90;1126.40;;;;;;4823696;29;20029;-75
2021/03/23 09:09:34;;;;;;;10.27;6.90;;;281.60;1100.80;;;;;;4811518;29;20247;-75
2021/03/23 09:12:10;;;;;;;14.23;5.32;;;256.90;1024.00;;;;;;4831044;29;20049;-75
2021/03/23 09:15:18;;;;;;;20.25;6.70;;;256.80;1049.60;;;;;;4831246;29;20034;-75
2021/03/23 09:18:14;;;;;;;9.65;4.95;;;282.00;998.40;;;;;;4742962;30;20123;-76
2021/03/23 09:20:40;;;;;;;9.23;6.00;;;282.30;998.40;;;;;;4743508;30;20025;-76
2021/03/23 09:23:38;;;;;;;13.32;6.03;;;282.40;947.20;;;;;;4739493;30;20095;-75
2021/03/23 09:26:31;;;;;;;10.18;5.25;;;282.40;921.60;;;;;;4750730;30;20120;-77
2021/03/23 09:29:17;;;;;;;10.27;4.93;;;307.70;947.20;;;;;;4742628;30;20530;-77
2021/03/23 09:31:51;;;;;;;9.80;4.82;;;307.50;947.20;;;;;;4734112;30;20093;-74
2021/03/23 09:34:54;;;;;;;11.07;5.78;;;307.30;972.80;;;;;;4743188;30;20040;-76
2021/03/23 09:37:48;;;;;;;16.88;6.60;;;307.40;1024.00;;;;;;4742891;30;20037;-75
2021/03/23 09:40:50;;;;;;;14.40;5.15;;;307.60;972.80;;;;;;4733152;30;20043;-75
2021/03/23 09:43:22;;;;;;;23.40;5.97;;;307.50;972.80;;;;;;4744408;30;20060;-76
2021/03/23 09:45:48;;;;;;;17.40;6.40;;;307.50;972.80;;;;;;4744447;30;20040;-76
2021/03/23 09:48:13;;;;;;;12.50;5.15;;;307.50;998.40;;;;;;4748658;30;20576;-76
2021/03/23 09:50:58;;;;;;;21.25;5.90;;;307.40;972.80;;;;;;4741007;30;20027;-75
2021/03/23 09:53:36;;;;;;;13.50;7.13;;;282.50;947.20;;;;;;4756620;29;20528;-75
2021/03/23 09:56:09;;;;;;;9.13;4.63;;;307.60;947.20;;;;;;4818405;29;20049;-77
2021/03/23 09:58:37;;;;;;;9.05;4.80;;;307.60;947.20;;;;;;4816898;29;20546;-79
2021/03/23 10:01:23;;;;;;;11.23;5.32;;;307.90;947.20;;;;;;4820637;29;20042;-78
2021/03/23 10:03:52;;;;;;;9.53;7.17;;;308.00;947.20;;;;;;4835939;29;20509;-79
2021/03/23 10:06:17;;;;;;;11.63;5.70;;;332.80;972.80;;;;;;4835721;29;20480;-78
2021/03/23 10:08:57;;;;;;;11.73;5.40;;;308.10;947.20;;;;;;4820145;29;20034;-80
2021/03/23 10:11:26;;;;;;;10.48;5.68;;;308.10;947.20;;;;;;4820347;29;20026;-80
2021/03/23 10:13:56;;;;;;;44.42;11.43;;;332.80;947.20;;;;;;4819852;29;20440;-80
2021/03/23 10:16:34;;;;;;;8.23;5.30;;;333.30;947.20;;;;;;4819452;29;20086;-78
2021/03/23 10:19:06;;;;;;;15.98;6.50;;;333.20;921.60;;;;;;4825318;29;20593;-78
2021/03/23 10:21:34;;;;;;;19.88;8.63;;;333.40;947.20;;;;;;4821724;29;20038;-79
2021/03/23 10:24:12;;;;;;;10.63;4.43;;;358.60;870.40;;;;;;4819760;29;20358;-78
2021/03/23 10:26:45;;;;;;;8.10;4.53;;;358.80;819.20;;;;;;4833551;29;20076;-79
2021/03/23 10:29:17;;;;;;;6.20;3.95;;;358.60;819.20;;;;;;4821157;29;20112;-76
2021/03/23 10:31:52;;;;;;;9.18;4.80;;;358.60;844.80;;;;;;4836798;29;20392;-77
2021/03/23 10:34:23;;;;;;;9.70;3.63;;;358.90;870.40;;;;;;4820819;29;20665;-75
2021/03/23 10:36:53;;;;;;;10.38;3.67;;;358.40;793.60;;;;;;4835427;29;20025;-76
2021/03/23 10:39:43;;;;;;;9.23;4.32;;;333.60;793.60;;;;;;4835022;29;20022;-76
2021/03/23 10:42:22;;;;;;;8.63;5.60;;;358.80;819.20;;;;;;4820636;29;20120;-77
2021/03/23 10:44:48;;;;;;;6.72;4.13;;;358.90;819.20;;;;;;4830094;29;20034;-76
2021/03/23 10:47:37;;;;;;;9.38;5.28;;;359.00;819.20;;;;;;4835786;29;20026;-78
2021/03/23 10:50:21;;;;;;;11.60;5.80;;;384.10;793.60;;;;;;4829689;29;20058;-74
2021/03/23 10:52:48;;;;;;;10.48;5.40;;;384.30;768.00;;;;;;4837365;29;20022;-77
2021/03/23 10:55:26;;;;;;;7.70;5.13;;;359.20;819.20;;;;;;4831267;29;20522;-73
2021/03/23 10:58:12;;;;;;;6.38;3.75;;;358.90;819.20;;;;;;4818640;29;20503;-73
2021/03/23 11:00:39;;;;;;;;;;;358.60;793.60;;;;;;4836964;29;20034;-73
2021/03/23 11:03:32;;;;;;;;;;;358.60;793.60;;;;;;4837121;29;19913;-77
2021/03/23 11:06:00;;;;;;;19.80;5.15;;;358.70;768.00;;;;;;4835729;29;20421;-78
2021/03/23 11:08:26;;;;;;;10.77;4.43;;;359.10;768.00;;;;;;4821454;29;20129;-77
2021/03/23 11:10:55;;;;;;;7.53;4.00;;;358.70;793.60;;;;;;4818101;29;20521;-75
2021/03/23 11:13:21;;;;;;;68.53;10.40;;;358.70;793.60;;;;;;4835683;29;20064;-74
2021/03/23 11:15:49;;;;;;;14.20;5.28;;;359.20;768.00;;;;;;4831103;29;20030;-74
2021/03/23 11:18:31;;;;;;;16.95;6.50;;;384.20;742.40;;;;;;4835723;29;20082;-74
2021/03/23 11:21:00;;;;;;;6.93;4.22;;;384.50;768.00;;;;;;4836835;29;20029;-74
2021/03/23 11:23:39;;;;;;;12.80;6.45;;;384.60;742.40;;;;;;4815636;29;20034;-75
2021/03/23 11:26:11;;;;;;;27.38;8.68;;;409.80;768.00;;;;;;4835218;29;20078;-74
2021/03/23 11:28:37;;;;;;;10.80;4.25;;;409.90;768.00;;;;;;4817341;29;20065;-75
2021/03/23 11:31:05;;;;;;;9.40;4.38;;;409.60;768.00;;;;;;4820811;29;20056;-76
2021/03/23 11:33:31;;;;;;;11.52;5.25;;;384.50;768.00;;;;;;4817738;29;20034;-75
2021/03/23 11:35:57;;;;;;;10.05;4.93;;;410.10;742.40;;;;;;4824674;29;20037;-75
2021/03/23 11:38:23;;;;;;;10.20;4.95;;;410.10;742.40;;;;;;4832605;29;20074;-76
2021/03/23 11:40:54;;;;;;;7.88;4.55;;;435.40;716.80;;;;;;4836552;29;20053;-74
2021/03/23 11:43:43;;;;;;;8.93;5.18;;;435.40;742.40;;;;;;4820964;29;20056;-74
2021/03/23 11:46:26;;;;;;;11.07;4.88;;;435.20;716.80;;;;;;4815733;29;20125;-74
2021/03/23 11:48:54;;;;;;;12.15;5.22;;;435.40;742.40;;;;;;4823509;29;20061;-74
2021/03/23 11:51:24;;;;;;;10.07;5.20;;;410.00;742.40;;;;;;4816503;29;20018;-76
2021/03/23 11:53:50;;;;;;;7.90;4.95;;;410.50;742.40;;;;;;4820348;29;20045;-74
2021/03/23 11:56:17;;;;;;;8.18;5.47;;;435.80;691.20;;;;;;4818620;29;20412;-75
2021/03/23 11:58:44;;;;;;;7.70;4.93;;;460.90;716.80;;;;;;4817246;29;20066;-76
2021/03/23 12:01:10;;;;;;;9.05;4.30;;;410.40;716.80;;;;;;4815784;29;20094;-74
2021/03/23 12:03:36;;;;;;;6.47;4.13;;;384.00;819.20;;;;;;4835727;29;20392;-74
2021/03/23 12:06:02;;;;;;;10.38;4.75;;;359.30;768.00;;;;;;4816958;29;20059;-75
2021/03/23 12:08:39;;;;;;;7.18;4.07;;;384.50;742.40;;;;;;4811505;29;20109;-74
2021/03/23 12:11:24;;;;;;;7.43;4.30;;;435.20;742.40;;;;;;4836421;29;20026;-74
2021/03/23 12:13:53;;;;;;;18.33;5.15;;;461.10;691.20;;;;;;4833052;29;20060;-74
2021/03/23 12:16:26;;;;;;;12.70;5.15;;;384.80;716.80;;;;;;4807830;29;20027;-73
2021/03/23 12:19:07;;;;;;;9.80;3.60;;;384.60;716.80;;;;;;4834488;29;20034;-74
2021/03/23 12:21:33;;;;;;;12.02;5.63;;;384.00;742.40;;;;;;4817577;29;20037;-74
2021/03/23 12:23:59;;;;;;;11.18;4.25;;;358.70;793.60;;;;;;4827103;29;20086;-75
2021/03/23 12:26:26;;;;;;;23.30;15.75;;;358.50;819.20;;;;;;4830652;29;20115;-76
2021/03/23 12:28:51;;;;;;;14.70;4.63;;;358.50;819.20;;;;;;4818180;29;20030;-77
2021/03/23 12:31:17;;;;;;;9.45;4.63;;;358.40;819.20;;;;;;4816313;29;20039;-75
2021/03/23 12:33:44;;;;;;;10.52;5.00;;;358.90;844.80;;;;;;4813481;29;20033;-75
2021/03/23 12:36:12;;;;;;;7.32;4.45;;;359.10;793.60;;;;;;4822961;29;20030;-75
2021/03/23 12:38:40;;;;;;;28.52;8.38;;;384.10;768.00;;;;;;4832464;29;20098;-75
2021/03/23 12:41:11;;;;;;;13.23;5.72;;;384.30;768.00;;;;;;4817757;29;20066;-76
2021/03/23 12:43:37;;;;;;;15.10;7.28;;;384.20;742.40;;;;;;4813262;29;20109;-75
2021/03/23 12:46:03;;;;;;;10.85;5.65;;;384.40;768.00;;;;;;4820754;29;20121;-75
2021/03/23 12:48:29;;;;;;;8.95;4.65;;;384.30;742.40;;;;;;4817802;29;20031;-75
2021/03/23 12:50:55;;;;;;;5.97;3.80;;;384.20;742.40;;;;;;4829388;29;20030;-75
2021/03/23 12:53:22;;;;;;;7.47;4.10;;;359.30;742.40;;;;;;4814119;29;20045;-77